sensor_id;sensor_type;location;lat;lon;timestamp;P1;durP1;ratioP1;P2;durP2;ratioP2
23290;SDS011;11814;44.686;10.842;2022-11-06T00:00:52;15.40;;;8.77;;
23290;SDS011;11814;44.686;10.842;2022-11-06T00:03:18;17.48;;;8.30;;
23290;SDS011;11814;44.686;10.842;2022-11-06T00:05:44;17.13;;;9.32;;
23290;SDS011;11814;44.686;10.842;2022-11-06T00:08:29;18.92;;;9.43;;
23290;SDS011;11814;44.686;10.842;2022-11-06T00:10:57;14.80;;;9.30;;
23290;SDS011;11814;44.686;10.842;2022-11-06T00:13:23;15.95;;;8.63;;
23290;SDS011;11814;44.686;10.842;2022-11-06T00:15:49;15.75;;;8.82;;
23290;SDS011;11814;44.686;10.842;2022-11-06T00:18:14;19.90;;;9.07;;
23290;SDS011;11814;44.686;10.842;2022-11-06T00:20:40;17.55;;;9.00;;
23290;SDS011;11814;44.686;10.842;2022-11-06T00:23:06;16.13;;;7.68;;
23290;SDS011;11814;44.686;10.842;2022-11-06T00:25:32;10.30;;;6.03;;
23290;SDS011;11814;44.686;10.842;2022-11-06T00:27:57;9.80;;;6.32;;
23290;SDS011;11814;44.686;10.842;2022-11-06T00:30:23;12.00;;;6.90;;
23290;SDS011;11814;44.686;10.842;2022-11-06T00:32:49;7.72;;;5.28;;
23290;SDS011;11814;44.686;10.842;2022-11-06T00:35:15;8.57;;;4.70;;
23290;SDS011;11814;44.686;10.842;2022-11-06T00:37:40;7.22;;;4.78;;
23290;SDS011;11814;44.686;10.842;2022-11-06T00:40:06;7.85;;;4.22;;
23290;SDS011;11814;44.686;10.842;2022-11-06T00:42:32;8.27;;;4.65;;
23290;SDS011;11814;44.686;10.842;2022-11-06T00:44:58;9.25;;;5.28;;
23290;SDS011;11814;44.686;10.842;2022-11-06T00:47:24;8.40;;;5.03;;
23290;SDS011;11814;44.686;10.842;2022-11-06T00:49:49;10.23;;;5.53;;
23290;SDS011;11814;44.686;10.842;2022-11-06T00:52:15;8.65;;;4.45;;
23290;SDS011;11814;44.686;10.842;2022-11-06T00:54:41;10.93;;;5.15;;
23290;SDS011;11814;44.686;10.842;2022-11-06T00:57:07;9.05;;;4.70;;
23290;SDS011;11814;44.686;10.842;2022-11-06T00:59:33;8.65;;;4.90;;
23290;SDS011;11814;44.686;10.842;2022-11-06T01:01:59;8.48;;;4.65;;
23290;SDS011;11814;44.686;10.842;2022-11-06T01:04:25;10.30;;;4.72;;
23290;SDS011;11814;44.686;10.842;2022-11-06T01:06:52;8.70;;;4.53;;
23290;SDS011;11814;44.686;10.842;2022-11-06T01:09:21;12.93;;;4.10;;
23290;SDS011;11814;44.686;10.842;2022-11-06T01:11:50;13.18;;;4.65;;
23290;SDS011;11814;44.686;10.842;2022-11-06T01:14:17;9.80;;;4.22;;
23290;SDS011;11814;44.686;10.842;2022-11-06T01:16:44;10.80;;;4.35;;
23290;SDS011;11814;44.686;10.842;2022-11-06T01:19:11;8.38;;;4.70;;
23290;SDS011;11814;44.686;10.842;2022-11-06T01:21:38;8.80;;;4.47;;
23290;SDS011;11814;44.686;10.842;2022-11-06T01:24:07;6.82;;;4.63;;
23290;SDS011;11814;44.686;10.842;2022-11-06T01:26:36;8.25;;;4.13;;
23290;SDS011;11814;44.686;10.842;2022-11-06T01:29:02;13.30;;;4.65;;
23290;SDS011;11814;44.686;10.842;2022-11-06T01:31:29;10.48;;;4.70;;
23290;SDS011;11814;44.686;10.842;2022-11-06T01:33:57;10.23;;;3.72;;
23290;SDS011;11814;44.686;10.842;2022-11-06T01:36:25;9.88;;;5.68;;
23290;SDS011;11814;44.686;10.842;2022-11-06T01:38:52;9.85;;;5.15;;
23290;SDS011;11814;44.686;10.842;2022-11-06T01:41:21;10.50;;;5.57;;
23290;SDS011;11814;44.686;10.842;2022-11-06T01:43:52;8.40;;;5.57;;
23290;SDS011;11814;44.686;10.842;2022-11-06T01:46:23;8.25;;;5.20;;
23290;SDS011;11814;44.686;10.842;2022-11-06T01:48:51;9.30;;;5.28;;
23290;SDS011;11814;44.686;10.842;2022-11-06T01:52:11;13.52;;;5.57;;
23290;SDS011;11814;44.686;10.842;2022-11-06T01:54:35;10.00;;;5.28;;
23290;SDS011;11814;44.686;10.842;2022-11-06T01:57:03;10.38;;;5.70;;
23290;SDS011;11814;44.686;10.842;2022-11-06T01:59:31;10.50;;;6.15;;
23290;SDS011;11814;44.686;10.842;2022-11-06T02:02:00;9.05;;;5.35;;
23290;SDS011;11814;44.686;10.842;2022-11-06T02:04:27;9.43;;;5.60;;
23290;SDS011;11814;44.686;10.842;2022-11-06T02:06:56;10.93;;;5.57;;
23290;SDS011;11814;44.686;10.842;2022-11-06T02:09:23;8.15;;;5.85;;
23290;SDS011;11814;44.686;10.842;2022-11-06T02:12:13;9.32;;;6.18;;
23290;SDS011;11814;44.686;10.842;2022-11-06T02:15:41;8.23;;;5.30;;
23290;SDS011;11814;44.686;10.842;2022-11-06T02:18:22;11.05;;;6.20;;
23290;SDS011;11814;44.686;10.842;2022-11-06T02:29:19;7.90;;;6.18;;
23290;SDS011;11814;44.686;10.842;2022-11-06T02:31:46;10.90;;;6.43;;
23290;SDS011;11814;44.686;10.842;2022-11-06T02:34:16;10.52;;;6.00;;
23290;SDS011;11814;44.686;10.842;2022-11-06T02:36:46;12.40;;;6.43;;
23290;SDS011;11814;44.686;10.842;2022-11-06T02:39:26;9.13;;;6.28;;
23290;SDS011;11814;44.686;10.842;2022-11-06T02:41:53;11.50;;;7.28;;
23290;SDS011;11814;44.686;10.842;2022-11-06T02:44:23;10.32;;;7.22;;
23290;SDS011;11814;44.686;10.842;2022-11-06T02:49:19;12.60;;;6.75;;
23290;SDS011;11814;44.686;10.842;2022-11-06T02:52:04;9.82;;;6.95;;
23290;SDS011;11814;44.686;10.842;2022-11-06T02:54:38;7.75;;;5.88;;
23290;SDS011;11814;44.686;10.842;2022-11-06T02:57:09;10.07;;;7.05;;
23290;SDS011;11814;44.686;10.842;2022-11-06T02:59:57;9.20;;;5.75;;
23290;SDS011;11814;44.686;10.842;2022-11-06T03:02:52;8.75;;;5.50;;
23290;SDS011;11814;44.686;10.842;2022-11-06T03:19:23;7.90;;;5.70;;
23290;SDS011;11814;44.686;10.842;2022-11-06T03:21:58;9.52;;;5.50;;
23290;SDS011;11814;44.686;10.842;2022-11-06T03:24:28;8.13;;;6.18;;
23290;SDS011;11814;44.686;10.842;2022-11-06T03:26:59;7.43;;;5.20;;
23290;SDS011;11814;44.686;10.842;2022-11-06T03:29:35;8.65;;;5.80;;
23290;SDS011;11814;44.686;10.842;2022-11-06T03:32:19;9.60;;;6.13;;
23290;SDS011;11814;44.686;10.842;2022-11-06T03:37:36;8.05;;;5.90;;
23290;SDS011;11814;44.686;10.842;2022-11-06T03:40:10;7.38;;;5.50;;
23290;SDS011;11814;44.686;10.842;2022-11-06T03:42:41;9.55;;;5.45;;
23290;SDS011;11814;44.686;10.842;2022-11-06T03:45:09;7.88;;;5.85;;
23290;SDS011;11814;44.686;10.842;2022-11-06T03:47:46;8.52;;;6.07;;
23290;SDS011;11814;44.686;10.842;2022-11-06T03:50:25;11.23;;;6.22;;
23290;SDS011;11814;44.686;10.842;2022-11-06T03:53:06;9.45;;;6.43;;
23290;SDS011;11814;44.686;10.842;2022-11-06T03:55:41;9.68;;;6.45;;
23290;SDS011;11814;44.686;10.842;2022-11-06T03:58:20;6.60;;;5.53;;
23290;SDS011;11814;44.686;10.842;2022-11-06T04:00:49;6.45;;;5.45;;
23290;SDS011;11814;44.686;10.842;2022-11-06T04:03:19;11.13;;;6.15;;
23290;SDS011;11814;44.686;10.842;2022-11-06T04:05:52;10.65;;;6.32;;
23290;SDS011;11814;44.686;10.842;2022-11-06T04:08:25;8.40;;;6.45;;
23290;SDS011;11814;44.686;10.842;2022-11-06T04:11:12;7.63;;;5.80;;
23290;SDS011;11814;44.686;10.842;2022-11-06T04:14:01;8.43;;;6.25;;
23290;SDS011;11814;44.686;10.842;2022-11-06T04:16:37;7.72;;;5.72;;
23290;SDS011;11814;44.686;10.842;2022-11-06T04:19:16;9.45;;;6.28;;
23290;SDS011;11814;44.686;10.842;2022-11-06T04:30:17;10.77;;;6.68;;
23290;SDS011;11814;44.686;10.842;2022-11-06T04:35:50;11.40;;;6.80;;
23290;SDS011;11814;44.686;10.842;2022-11-06T04:43:37;10.50;;;6.60;;
23290;SDS011;11814;44.686;10.842;2022-11-06T04:46:09;7.57;;;5.68;;
23290;SDS011;11814;44.686;10.842;2022-11-06T04:48:38;7.18;;;5.50;;
23290;SDS011;11814;44.686;10.842;2022-11-06T04:51:06;7.65;;;6.50;;
23290;SDS011;11814;44.686;10.842;2022-11-06T04:53:34;7.75;;;5.70;;
23290;SDS011;11814;44.686;10.842;2022-11-06T04:56:05;10.93;;;6.50;;
23290;SDS011;11814;44.686;10.842;2022-11-06T04:58:34;9.43;;;6.10;;
23290;SDS011;11814;44.686;10.842;2022-11-06T05:00:59;6.72;;;5.45;;
23290;SDS011;11814;44.686;10.842;2022-11-06T05:03:25;6.03;;;4.97;;
23290;SDS011;11814;44.686;10.842;2022-11-06T05:05:51;8.63;;;5.75;;
23290;SDS011;11814;44.686;10.842;2022-11-06T05:08:17;7.07;;;5.43;;
23290;SDS011;11814;44.686;10.842;2022-11-06T05:10:45;8.70;;;5.72;;
23290;SDS011;11814;44.686;10.842;2022-11-06T05:13:11;6.35;;;5.47;;
23290;SDS011;11814;44.686;10.842;2022-11-06T05:15:38;9.55;;;5.97;;
23290;SDS011;11814;44.686;10.842;2022-11-06T05:18:04;10.15;;;6.20;;
23290;SDS011;11814;44.686;10.842;2022-11-06T05:20:30;10.50;;;5.90;;
23290;SDS011;11814;44.686;10.842;2022-11-06T05:22:57;8.07;;;5.93;;
23290;SDS011;11814;44.686;10.842;2022-11-06T05:25:24;8.93;;;6.60;;
23290;SDS011;11814;44.686;10.842;2022-11-06T05:27:51;7.57;;;5.88;;
23290;SDS011;11814;44.686;10.842;2022-11-06T05:30:17;10.70;;;5.97;;
23290;SDS011;11814;44.686;10.842;2022-11-06T05:32:43;9.18;;;5.30;;
23290;SDS011;11814;44.686;10.842;2022-11-06T05:35:09;10.20;;;5.32;;
23290;SDS011;11814;44.686;10.842;2022-11-06T05:37:34;8.65;;;6.00;;
23290;SDS011;11814;44.686;10.842;2022-11-06T05:40:00;7.82;;;5.68;;
23290;SDS011;11814;44.686;10.842;2022-11-06T05:42:26;9.48;;;6.45;;
23290;SDS011;11814;44.686;10.842;2022-11-06T05:44:51;11.55;;;6.47;;
23290;SDS011;11814;44.686;10.842;2022-11-06T05:47:17;8.80;;;5.88;;
23290;SDS011;11814;44.686;10.842;2022-11-06T05:49:43;14.00;;;6.35;;
23290;SDS011;11814;44.686;10.842;2022-11-06T05:52:09;7.93;;;6.10;;
23290;SDS011;11814;44.686;10.842;2022-11-06T05:54:34;8.65;;;6.25;;
23290;SDS011;11814;44.686;10.842;2022-11-06T05:57:00;8.57;;;5.90;;
23290;SDS011;11814;44.686;10.842;2022-11-06T05:59:25;10.88;;;6.57;;
23290;SDS011;11814;44.686;10.842;2022-11-06T06:01:51;9.27;;;7.00;;
23290;SDS011;11814;44.686;10.842;2022-11-06T06:04:17;7.55;;;6.35;;
23290;SDS011;11814;44.686;10.842;2022-11-06T06:06:43;12.02;;;6.75;;
23290;SDS011;11814;44.686;10.842;2022-11-06T06:09:08;12.25;;;6.85;;
23290;SDS011;11814;44.686;10.842;2022-11-06T06:11:34;11.68;;;7.72;;
23290;SDS011;11814;44.686;10.842;2022-11-06T06:14:00;11.45;;;7.45;;
23290;SDS011;11814;44.686;10.842;2022-11-06T06:16:26;11.23;;;7.55;;
23290;SDS011;11814;44.686;10.842;2022-11-06T06:18:52;9.18;;;7.00;;
23290;SDS011;11814;44.686;10.842;2022-11-06T06:21:17;10.82;;;6.72;;
23290;SDS011;11814;44.686;10.842;2022-11-06T06:23:43;9.50;;;7.18;;
23290;SDS011;11814;44.686;10.842;2022-11-06T06:26:09;12.93;;;8.05;;
23290;SDS011;11814;44.686;10.842;2022-11-06T06:28:35;15.07;;;7.95;;
23290;SDS011;11814;44.686;10.842;2022-11-06T06:31:04;12.27;;;7.88;;
23290;SDS011;11814;44.686;10.842;2022-11-06T06:33:30;12.98;;;7.80;;
23290;SDS011;11814;44.686;10.842;2022-11-06T06:35:57;12.75;;;7.15;;
23290;SDS011;11814;44.686;10.842;2022-11-06T06:38:23;11.65;;;7.68;;
23290;SDS011;11814;44.686;10.842;2022-11-06T06:40:50;10.00;;;8.32;;
23290;SDS011;11814;44.686;10.842;2022-11-06T06:43:15;11.45;;;7.32;;
23290;SDS011;11814;44.686;10.842;2022-11-06T06:45:41;8.98;;;7.43;;
23290;SDS011;11814;44.686;10.842;2022-11-06T06:48:07;11.63;;;8.25;;
23290;SDS011;11814;44.686;10.842;2022-11-06T06:50:33;12.82;;;9.40;;
23290;SDS011;11814;44.686;10.842;2022-11-06T06:52:59;13.27;;;9.43;;
23290;SDS011;11814;44.686;10.842;2022-11-06T06:55:25;10.18;;;8.48;;
23290;SDS011;11814;44.686;10.842;2022-11-06T06:57:57;10.32;;;8.32;;
23290;SDS011;11814;44.686;10.842;2022-11-06T07:00:24;9.32;;;8.23;;
23290;SDS011;11814;44.686;10.842;2022-11-06T07:02:50;9.68;;;8.10;;
23290;SDS011;11814;44.686;10.842;2022-11-06T07:05:16;10.52;;;7.50;;
23290;SDS011;11814;44.686;10.842;2022-11-06T07:07:42;10.02;;;7.97;;
23290;SDS011;11814;44.686;10.842;2022-11-06T07:10:08;9.93;;;7.32;;
23290;SDS011;11814;44.686;10.842;2022-11-06T07:12:34;9.07;;;6.50;;
23290;SDS011;11814;44.686;10.842;2022-11-06T07:15:00;10.18;;;6.93;;
23290;SDS011;11814;44.686;10.842;2022-11-06T07:17:26;11.18;;;8.05;;
23290;SDS011;11814;44.686;10.842;2022-11-06T07:19:52;7.28;;;6.53;;
23290;SDS011;11814;44.686;10.842;2022-11-06T07:22:17;8.73;;;6.80;;
23290;SDS011;11814;44.686;10.842;2022-11-06T07:24:43;9.13;;;6.05;;
23290;SDS011;11814;44.686;10.842;2022-11-06T07:27:09;7.55;;;5.18;;
23290;SDS011;11814;44.686;10.842;2022-11-06T07:29:35;7.40;;;5.60;;
23290;SDS011;11814;44.686;10.842;2022-11-06T07:32:00;7.70;;;6.15;;
23290;SDS011;11814;44.686;10.842;2022-11-06T07:34:26;7.50;;;6.35;;
23290;SDS011;11814;44.686;10.842;2022-11-06T07:36:52;8.13;;;5.95;;
23290;SDS011;11814;44.686;10.842;2022-11-06T07:39:17;8.00;;;5.70;;
23290;SDS011;11814;44.686;10.842;2022-11-06T07:41:43;7.15;;;5.60;;
23290;SDS011;11814;44.686;10.842;2022-11-06T07:44:09;8.57;;;6.03;;
23290;SDS011;11814;44.686;10.842;2022-11-06T07:46:35;8.70;;;6.03;;
23290;SDS011;11814;44.686;10.842;2022-11-06T07:49:00;8.05;;;5.72;;
23290;SDS011;11814;44.686;10.842;2022-11-06T07:51:26;11.93;;;6.45;;
23290;SDS011;11814;44.686;10.842;2022-11-06T07:53:52;7.95;;;6.03;;
23290;SDS011;11814;44.686;10.842;2022-11-06T07:56:17;10.45;;;6.20;;
23290;SDS011;11814;44.686;10.842;2022-11-06T07:58:43;12.63;;;5.43;;
23290;SDS011;11814;44.686;10.842;2022-11-06T08:01:12;6.85;;;5.68;;
23290;SDS011;11814;44.686;10.842;2022-11-06T08:03:41;6.05;;;4.72;;
23290;SDS011;11814;44.686;10.842;2022-11-06T08:06:07;8.02;;;4.13;;
23290;SDS011;11814;44.686;10.842;2022-11-06T08:08:33;4.32;;;3.40;;
23290;SDS011;11814;44.686;10.842;2022-11-06T08:11:00;4.65;;;3.30;;
23290;SDS011;11814;44.686;10.842;2022-11-06T08:13:30;4.28;;;3.45;;
23290;SDS011;11814;44.686;10.842;2022-11-06T08:15:58;5.78;;;3.47;;
23290;SDS011;11814;44.686;10.842;2022-11-06T08:18:27;4.45;;;2.70;;
23290;SDS011;11814;44.686;10.842;2022-11-06T08:20:52;3.58;;;2.50;;
23290;SDS011;11814;44.686;10.842;2022-11-06T08:23:18;5.03;;;2.30;;
23290;SDS011;11814;44.686;10.842;2022-11-06T08:25:44;4.38;;;2.75;;
23290;SDS011;11814;44.686;10.842;2022-11-06T08:28:09;4.32;;;2.30;;
23290;SDS011;11814;44.686;10.842;2022-11-06T08:30:35;3.60;;;2.10;;
23290;SDS011;11814;44.686;10.842;2022-11-06T08:33:02;2.83;;;2.13;;
23290;SDS011;11814;44.686;10.842;2022-11-06T08:35:29;4.85;;;2.67;;
23290;SDS011;11814;44.686;10.842;2022-11-06T08:37:55;5.72;;;2.67;;
23290;SDS011;11814;44.686;10.842;2022-11-06T08:40:21;4.15;;;2.60;;
23290;SDS011;11814;44.686;10.842;2022-11-06T08:42:47;4.88;;;2.42;;
23290;SDS011;11814;44.686;10.842;2022-11-06T08:45:13;5.95;;;2.50;;
23290;SDS011;11814;44.686;10.842;2022-11-06T08:47:39;4.55;;;2.10;;
23290;SDS011;11814;44.686;10.842;2022-11-06T08:50:05;3.13;;;2.05;;
23290;SDS011;11814;44.686;10.842;2022-11-06T08:52:31;3.25;;;1.90;;
23290;SDS011;11814;44.686;10.842;2022-11-06T08:54:57;4.72;;;2.28;;
23290;SDS011;11814;44.686;10.842;2022-11-06T08:57:22;4.20;;;2.20;;
23290;SDS011;11814;44.686;10.842;2022-11-06T08:59:48;4.90;;;2.10;;
23290;SDS011;11814;44.686;10.842;2022-11-06T09:02:14;3.28;;;1.80;;
23290;SDS011;11814;44.686;10.842;2022-11-06T09:04:40;8.00;;;2.17;;
23290;SDS011;11814;44.686;10.842;2022-11-06T09:07:06;4.03;;;2.00;;
23290;SDS011;11814;44.686;10.842;2022-11-06T09:09:32;5.60;;;2.58;;
23290;SDS011;11814;44.686;10.842;2022-11-06T09:11:58;4.88;;;2.05;;
23290;SDS011;11814;44.686;10.842;2022-11-06T09:14:24;5.55;;;2.90;;
23290;SDS011;11814;44.686;10.842;2022-11-06T09:16:50;7.25;;;2.75;;
23290;SDS011;11814;44.686;10.842;2022-11-06T09:19:16;6.63;;;2.95;;
23290;SDS011;11814;44.686;10.842;2022-11-06T09:21:42;15.95;;;4.97;;
23290;SDS011;11814;44.686;10.842;2022-11-06T09:24:08;25.23;;;8.35;;
23290;SDS011;11814;44.686;10.842;2022-11-06T09:26:33;12.27;;;3.33;;
23290;SDS011;11814;44.686;10.842;2022-11-06T09:28:59;11.82;;;4.40;;
23290;SDS011;11814;44.686;10.842;2022-11-06T09:31:25;3.85;;;2.03;;
23290;SDS011;11814;44.686;10.842;2022-11-06T09:33:50;5.85;;;2.30;;
23290;SDS011;11814;44.686;10.842;2022-11-06T09:36:16;4.40;;;2.10;;
23290;SDS011;11814;44.686;10.842;2022-11-06T09:38:42;5.20;;;1.98;;
23290;SDS011;11814;44.686;10.842;2022-11-06T09:41:15;3.25;;;1.95;;
23290;SDS011;11814;44.686;10.842;2022-11-06T09:46:31;3.78;;;1.88;;
23290;SDS011;11814;44.686;10.842;2022-11-06T09:49:01;4.43;;;1.83;;
23290;SDS011;11814;44.686;10.842;2022-11-06T09:51:35;2.55;;;1.83;;
23290;SDS011;11814;44.686;10.842;2022-11-06T09:54:13;2.95;;;1.98;;
23290;SDS011;11814;44.686;10.842;2022-11-06T09:56:44;6.57;;;2.00;;
23290;SDS011;11814;44.686;10.842;2022-11-06T09:59:14;2.75;;;1.83;;
23290;SDS011;11814;44.686;10.842;2022-11-06T10:01:44;2.80;;;1.80;;
23290;SDS011;11814;44.686;10.842;2022-11-06T10:04:22;3.13;;;1.77;;
23290;SDS011;11814;44.686;10.842;2022-11-06T10:09:49;3.25;;;1.98;;
23290;SDS011;11814;44.686;10.842;2022-11-06T10:15:26;3.58;;;2.10;;
23290;SDS011;11814;44.686;10.842;2022-11-06T10:18:00;6.03;;;1.90;;
23290;SDS011;11814;44.686;10.842;2022-11-06T10:20:33;2.85;;;1.63;;
23290;SDS011;11814;44.686;10.842;2022-11-06T10:26:11;4.68;;;2.30;;
23290;SDS011;11814;44.686;10.842;2022-11-06T10:34:41;4.78;;;2.55;;
23290;SDS011;11814;44.686;10.842;2022-11-06T10:37:13;3.80;;;2.25;;
23290;SDS011;11814;44.686;10.842;2022-11-06T10:39:45;4.15;;;2.33;;
23290;SDS011;11814;44.686;10.842;2022-11-06T10:42:18;5.32;;;3.05;;
23290;SDS011;11814;44.686;10.842;2022-11-06T10:47:23;5.43;;;3.13;;
23290;SDS011;11814;44.686;10.842;2022-11-06T10:49:55;6.05;;;2.90;;
23290;SDS011;11814;44.686;10.842;2022-11-06T10:57:35;6.88;;;2.83;;
23290;SDS011;11814;44.686;10.842;2022-11-06T11:00:10;8.30;;;3.05;;
23290;SDS011;11814;44.686;10.842;2022-11-06T11:02:44;6.00;;;2.70;;
23290;SDS011;11814;44.686;10.842;2022-11-06T11:05:14;6.78;;;2.92;;
23290;SDS011;11814;44.686;10.842;2022-11-06T11:07:43;5.63;;;3.10;;
23290;SDS011;11814;44.686;10.842;2022-11-06T11:12:49;5.05;;;2.55;;
23290;SDS011;11814;44.686;10.842;2022-11-06T11:15:17;6.70;;;3.47;;
23290;SDS011;11814;44.686;10.842;2022-11-06T11:18:14;10.00;;;3.60;;
23290;SDS011;11814;44.686;10.842;2022-11-06T11:20:48;5.95;;;3.13;;
23290;SDS011;11814;44.686;10.842;2022-11-06T11:25:52;5.70;;;3.20;;
23290;SDS011;11814;44.686;10.842;2022-11-06T11:33:38;7.10;;;3.28;;
23290;SDS011;11814;44.686;10.842;2022-11-06T11:36:06;6.30;;;3.40;;
23290;SDS011;11814;44.686;10.842;2022-11-06T11:38:34;7.15;;;3.25;;
23290;SDS011;11814;44.686;10.842;2022-11-06T11:43:44;7.53;;;3.10;;
23290;SDS011;11814;44.686;10.842;2022-11-06T11:46:29;9.30;;;3.97;;
23290;SDS011;11814;44.686;10.842;2022-11-06T11:48:56;8.95;;;3.88;;
23290;SDS011;11814;44.686;10.842;2022-11-06T11:53:51;8.18;;;3.58;;
23290;SDS011;11814;44.686;10.842;2022-11-06T11:56:20;7.88;;;3.80;;
23290;SDS011;11814;44.686;10.842;2022-11-06T11:58:50;7.40;;;2.67;;
23290;SDS011;11814;44.686;10.842;2022-11-06T12:01:37;7.65;;;2.75;;
23290;SDS011;11814;44.686;10.842;2022-11-06T12:04:08;7.00;;;2.80;;
23290;SDS011;11814;44.686;10.842;2022-11-06T12:07:03;5.03;;;2.58;;
23290;SDS011;11814;44.686;10.842;2022-11-06T12:09:33;7.93;;;3.30;;
23290;SDS011;11814;44.686;10.842;2022-11-06T12:12:08;8.98;;;3.33;;
23290;SDS011;11814;44.686;10.842;2022-11-06T12:15:02;6.82;;;3.33;;
23290;SDS011;11814;44.686;10.842;2022-11-06T12:17:31;8.15;;;3.33;;
23290;SDS011;11814;44.686;10.842;2022-11-06T12:19:59;6.07;;;3.00;;
23290;SDS011;11814;44.686;10.842;2022-11-06T12:22:33;5.63;;;2.75;;
23290;SDS011;11814;44.686;10.842;2022-11-06T12:25:08;7.90;;;2.70;;
23290;SDS011;11814;44.686;10.842;2022-11-06T12:27:45;3.67;;;2.20;;
23290;SDS011;11814;44.686;10.842;2022-11-06T12:30:15;7.40;;;2.90;;
23290;SDS011;11814;44.686;10.842;2022-11-06T12:35:45;6.53;;;3.00;;
23290;SDS011;11814;44.686;10.842;2022-11-06T12:38:24;6.10;;;2.85;;
23290;SDS011;11814;44.686;10.842;2022-11-06T12:40:57;6.30;;;2.53;;
23290;SDS011;11814;44.686;10.842;2022-11-06T13:05:18;4.68;;;2.67;;
23290;SDS011;11814;44.686;10.842;2022-11-06T13:13:13;7.30;;;2.63;;
23290;SDS011;11814;44.686;10.842;2022-11-06T13:15:52;4.20;;;2.38;;
23290;SDS011;11814;44.686;10.842;2022-11-06T13:18:24;3.30;;;1.98;;
23290;SDS011;11814;44.686;10.842;2022-11-06T13:21:00;6.38;;;2.85;;
23290;SDS011;11814;44.686;10.842;2022-11-06T13:23:49;5.05;;;2.70;;
23290;SDS011;11814;44.686;10.842;2022-11-06T13:29:02;6.93;;;2.40;;
23290;SDS011;11814;44.686;10.842;2022-11-06T13:32:13;5.13;;;2.70;;
23290;SDS011;11814;44.686;10.842;2022-11-06T13:34:23;5.40;;;2.67;;
23290;SDS011;11814;44.686;10.842;2022-11-06T13:36:53;5.05;;;2.53;;
23290;SDS011;11814;44.686;10.842;2022-11-06T13:39:25;3.05;;;2.00;;
23290;SDS011;11814;44.686;10.842;2022-11-06T13:41:59;4.40;;;2.30;;
23290;SDS011;11814;44.686;10.842;2022-11-06T13:44:26;4.15;;;2.20;;
23290;SDS011;11814;44.686;10.842;2022-11-06T13:47:11;5.90;;;2.55;;
23290;SDS011;11814;44.686;10.842;2022-11-06T13:49:57;5.32;;;2.20;;
23290;SDS011;11814;44.686;10.842;2022-11-06T14:06:30;3.42;;;1.50;;
23290;SDS011;11814;44.686;10.842;2022-11-06T14:08:59;4.80;;;1.50;;
23290;SDS011;11814;44.686;10.842;2022-11-06T14:11:41;2.78;;;1.20;;
23290;SDS011;11814;44.686;10.842;2022-11-06T14:19:41;3.33;;;1.65;;
23290;SDS011;11814;44.686;10.842;2022-11-06T14:24:54;4.45;;;2.03;;
23290;SDS011;11814;44.686;10.842;2022-11-06T14:29:56;5.72;;;2.22;;
23290;SDS011;11814;44.686;10.842;2022-11-06T14:32:45;5.15;;;2.08;;
23290;SDS011;11814;44.686;10.842;2022-11-06T14:40:34;5.28;;;2.33;;
23290;SDS011;11814;44.686;10.842;2022-11-06T14:43:23;4.57;;;2.38;;
23290;SDS011;11814;44.686;10.842;2022-11-06T14:48:30;6.70;;;2.50;;
23290;SDS011;11814;44.686;10.842;2022-11-06T14:50:56;5.13;;;2.42;;
23290;SDS011;11814;44.686;10.842;2022-11-06T14:53:26;5.07;;;2.38;;
23290;SDS011;11814;44.686;10.842;2022-11-06T14:58:33;10.50;;;3.08;;
23290;SDS011;11814;44.686;10.842;2022-11-06T15:19:16;3.90;;;2.30;;
23290;SDS011;11814;44.686;10.842;2022-11-06T15:21:47;3.15;;;1.70;;
23290;SDS011;11814;44.686;10.842;2022-11-06T15:24:27;6.97;;;2.08;;
23290;SDS011;11814;44.686;10.842;2022-11-06T15:26:57;4.80;;;1.80;;
23290;SDS011;11814;44.686;10.842;2022-11-06T15:29:28;4.93;;;1.77;;
23290;SDS011;11814;44.686;10.842;2022-11-06T15:32:01;4.30;;;2.08;;
23290;SDS011;11814;44.686;10.842;2022-11-06T15:34:38;4.65;;;1.88;;
23290;SDS011;11814;44.686;10.842;2022-11-06T15:39:37;2.70;;;1.60;;
23290;SDS011;11814;44.686;10.842;2022-11-06T15:42:08;5.35;;;1.83;;
23290;SDS011;11814;44.686;10.842;2022-11-06T15:44:38;4.80;;;2.17;;
23290;SDS011;11814;44.686;10.842;2022-11-06T15:47:17;2.65;;;1.40;;
23290;SDS011;11814;44.686;10.842;2022-11-06T15:49:48;4.18;;;1.92;;
23290;SDS011;11814;44.686;10.842;2022-11-06T15:52:43;5.75;;;1.90;;
23290;SDS011;11814;44.686;10.842;2022-11-06T15:55:13;3.50;;;2.10;;
23290;SDS011;11814;44.686;10.842;2022-11-06T15:57:47;3.58;;;1.50;;
23290;SDS011;11814;44.686;10.842;2022-11-06T16:05:13;3.63;;;1.83;;
23290;SDS011;11814;44.686;10.842;2022-11-06T16:07:41;5.43;;;1.65;;
23290;SDS011;11814;44.686;10.842;2022-11-06T16:10:12;3.25;;;2.10;;
23290;SDS011;11814;44.686;10.842;2022-11-06T16:12:42;4.22;;;2.20;;
23290;SDS011;11814;44.686;10.842;2022-11-06T16:23:23;7.55;;;2.97;;
23290;SDS011;11814;44.686;10.842;2022-11-06T16:25:57;6.85;;;2.00;;
23290;SDS011;11814;44.686;10.842;2022-11-06T16:28:27;5.18;;;1.88;;
23290;SDS011;11814;44.686;10.842;2022-11-06T16:30:58;8.45;;;2.28;;
23290;SDS011;11814;44.686;10.842;2022-11-06T16:33:29;8.35;;;2.63;;
23290;SDS011;11814;44.686;10.842;2022-11-06T16:36:04;4.93;;;2.67;;
23290;SDS011;11814;44.686;10.842;2022-11-06T16:38:43;5.43;;;2.65;;
23290;SDS011;11814;44.686;10.842;2022-11-06T16:41:14;5.80;;;2.38;;
23290;SDS011;11814;44.686;10.842;2022-11-06T16:49:33;4.82;;;2.38;;
23290;SDS011;11814;44.686;10.842;2022-11-06T16:52:39;5.80;;;2.33;;
23290;SDS011;11814;44.686;10.842;2022-11-06T16:57:31;4.95;;;2.22;;
23290;SDS011;11814;44.686;10.842;2022-11-06T16:59:58;8.68;;;2.58;;
23290;SDS011;11814;44.686;10.842;2022-11-06T17:02:52;5.97;;;2.65;;
23290;SDS011;11814;44.686;10.842;2022-11-06T17:05:20;5.97;;;3.10;;
23290;SDS011;11814;44.686;10.842;2022-11-06T17:10:47;5.95;;;3.10;;
23290;SDS011;11814;44.686;10.842;2022-11-06T17:13:18;5.28;;;3.05;;
23290;SDS011;11814;44.686;10.842;2022-11-06T17:15:46;8.40;;;3.03;;
23290;SDS011;11814;44.686;10.842;2022-11-06T17:18:38;4.55;;;2.72;;
23290;SDS011;11814;44.686;10.842;2022-11-06T17:21:06;8.30;;;2.88;;
23290;SDS011;11814;44.686;10.842;2022-11-06T17:23:36;6.18;;;2.85;;
23290;SDS011;11814;44.686;10.842;2022-11-06T17:28:42;8.18;;;2.67;;
23290;SDS011;11814;44.686;10.842;2022-11-06T17:31:10;4.85;;;2.58;;
23290;SDS011;11814;44.686;10.842;2022-11-06T17:33:37;5.82;;;3.08;;
23290;SDS011;11814;44.686;10.842;2022-11-06T17:36:04;6.03;;;3.17;;
23290;SDS011;11814;44.686;10.842;2022-11-06T17:38:30;7.22;;;3.35;;
23290;SDS011;11814;44.686;10.842;2022-11-06T17:40:56;5.50;;;3.20;;
23290;SDS011;11814;44.686;10.842;2022-11-06T17:43:21;7.57;;;3.70;;
23290;SDS011;11814;44.686;10.842;2022-11-06T17:45:47;7.88;;;3.63;;
23290;SDS011;11814;44.686;10.842;2022-11-06T17:48:14;8.15;;;3.85;;
23290;SDS011;11814;44.686;10.842;2022-11-06T17:50:40;7.25;;;3.30;;
23290;SDS011;11814;44.686;10.842;2022-11-06T17:53:25;11.65;;;3.40;;
23290;SDS011;11814;44.686;10.842;2022-11-06T17:55:51;6.90;;;3.15;;
23290;SDS011;11814;44.686;10.842;2022-11-06T17:58:16;7.72;;;3.72;;
23290;SDS011;11814;44.686;10.842;2022-11-06T18:00:42;8.05;;;3.67;;
23290;SDS011;11814;44.686;10.842;2022-11-06T18:03:14;8.82;;;3.53;;
23290;SDS011;11814;44.686;10.842;2022-11-06T18:05:44;8.65;;;3.67;;
23290;SDS011;11814;44.686;10.842;2022-11-06T18:08:11;8.00;;;4.57;;
23290;SDS011;11814;44.686;10.842;2022-11-06T18:10:40;7.35;;;3.65;;